Terminal Aerodrome Forecast
Issued by NWS Detroit/Pontiac, MI

Home | Current Version | Previous Version | Text Only | Print | Product List | Glossary On
Versions: 1 2 3 4 5 6 7 8 9 10 11 12 13 14
700
FTUS43 KDTX 240525
TAFFNT
TAF
KFNT 240525Z 2406/2506 20005KT P6SM SKC
     FM241800 24010KT P6SM SCT050 SCT250
     FM250000 21005KT P6SM BKN200=

USA.gov is the U.S. government's official web portal to all federal, state and local government web resources and services.